Time;durP1;ratioP1;P1;durP2;ratioP2;P2;SDS_P1;SDS_P2;PMS_P1;PMS_P2;Temp;Humidity;BMP_temperature;BMP_pressure;BME280_temperature;BME280_humidity;BME280_pressure;Samples;Min_cycle;Max_cycle;Signal;HPM_P1;HPM_P2
2022/09/22 00:02:15;;;;;;;2.75;1.58;;;10.40;99.90;;;10.46;100.00;101871.47;5145796;28;20050;-83
2022/09/22 00:04:47;;;;;;;2.58;1.50;;;10.40;99.90;;;10.41;100.00;101880.75;5150317;28;20043;-83
2022/09/22 00:07:19;;;;;;;2.72;1.85;;;10.40;99.90;;;10.37;100.00;101873.59;5150621;28;20101;-83
2022/09/22 00:09:51;;;;;;;2.65;1.42;;;10.30;99.90;;;10.30;100.00;101874.06;5151311;28;20047;-82
2022/09/22 00:12:25;;;;;;;3.58;1.42;;;10.30;99.90;;;10.27;100.00;101872.19;5205615;23;20138;-73
2022/09/22 00:14:58;;;;;;;1.40;1.30;;;10.20;99.90;;;10.24;100.00;101876.38;5146588;28;20066;-72
2022/09/22 00:17:31;;;;;;;2.88;1.50;;;10.20;99.90;;;10.23;100.00;101870.25;5146994;28;20388;-72
2022/09/22 00:20:03;;;;;;;2.97;1.73;;;10.20;99.90;;;10.19;100.00;101870.88;5147239;28;20522;-73
2022/09/22 00:22:35;;;;;;;2.72;1.35;;;10.10;99.90;;;10.15;100.00;101866.31;5146793;28;20499;-71
2022/09/22 00:25:09;;;;;;;2.40;1.55;;;10.10;99.90;;;10.13;100.00;101874.88;5146787;28;20049;-70
2022/09/22 00:27:43;;;;;;;1.77;1.48;;;10.10;99.90;;;10.13;100.00;101877.47;5146818;28;20050;-72
2022/09/22 00:30:16;;;;;;;2.72;1.60;;;10.10;99.90;;;10.14;100.00;101871.44;5146610;28;20047;-72
2022/09/22 00:32:48;;;;;;;2.58;1.73;;;10.10;99.90;;;10.16;100.00;101872.41;5146563;28;20050;-71
2022/09/22 00:35:21;;;;;;;2.85;1.83;;;10.10;99.90;;;10.18;100.00;101870.81;5146661;28;20051;-72
2022/09/22 00:37:53;;;;;;;2.85;1.65;;;10.20;99.90;;;10.19;100.00;101867.38;5146540;28;20065;-72
2022/09/22 00:40:25;;;;;;;3.10;1.75;;;10.10;99.90;;;10.20;100.00;101869.16;5145165;28;20073;-72
2022/09/22 00:46:09;;;;;;;2.42;1.52;;;10.10;99.90;;;10.19;100.00;101869.97;5305725;27;20371;-72
2022/09/22 00:48:47;;;;;;;3.33;1.65;;;10.10;99.90;;;10.13;100.00;101872.25;5284532;28;20055;-71
2022/09/22 00:51:24;;;;;;;2.78;1.48;;;10.10;99.90;;;10.06;100.00;101865.81;5284631;28;20050;-72
2022/09/22 00:53:58;;;;;;;2.53;1.75;;;10.00;99.90;;;9.99;100.00;101864.59;5284508;28;20043;-72
2022/09/22 00:56:36;;;;;;;2.00;1.30;;;10.00;99.90;;;9.95;100.00;101865.22;5284498;28;20434;-72
2022/09/22 00:59:13;;;;;;;2.65;1.50;;;10.00;99.90;;;9.91;100.00;101867.56;5284394;28;20079;-72
2022/09/22 01:01:47;;;;;;;2.72;1.60;;;9.90;99.90;;;9.89;100.00;101867.50;5282959;28;20044;-72
2022/09/22 01:04:19;;;;;;;2.33;1.50;;;9.80;99.90;;;9.88;100.00;101864.81;5284339;28;20492;-72
2022/09/22 01:06:54;;;;;;;4.20;1.55;;;9.80;99.90;;;9.86;100.00;101858.66;5284510;28;20040;-72
2022/09/22 01:09:27;;;;;;;2.63;1.60;;;9.80;99.90;;;9.84;100.00;101855.03;5284019;28;20058;-72
2022/09/22 01:11:59;;;;;;;3.10;1.70;;;9.80;99.90;;;9.82;100.00;101857.56;5299894;28;20040;-72
2022/09/22 01:14:51;;;;;;;3.00;1.33;;;9.80;99.90;;;9.81;100.00;101849.69;5282459;28;20138;-72
2022/09/22 01:17:37;;;;;;;3.33;1.73;;;9.80;99.90;;;9.78;100.00;101853.03;5282693;28;20144;-72
2022/09/22 01:20:56;;;;;;;3.30;1.70;;;9.80;99.90;;;9.73;100.00;101849.25;5282569;28;20142;-72
2022/09/22 01:24:05;;;;;;;3.50;1.60;;;9.70;99.90;;;9.70;100.00;101851.69;5284881;28;20107;-72
2022/09/22 01:27:06;;;;;;;2.00;1.42;;;9.70;99.90;;;9.68;100.00;101841.19;5282714;28;20051;-72
2022/09/22 01:30:19;;;;;;;3.15;1.73;;;9.70;99.90;;;9.66;100.00;101839.31;5282307;28;20101;-72
2022/09/22 01:33:24;;;;;;;5.38;1.60;;;9.60;99.90;;;9.62;100.00;101839.97;5283873;28;20047;-72
2022/09/22 01:36:11;;;;;;;1.90;1.63;;;9.60;99.90;;;9.58;100.00;101849.28;5283828;28;20063;-72
2022/09/22 01:38:57;;;;;;;2.50;1.50;;;9.60;99.90;;;9.54;100.00;101836.03;5283714;28;20564;-72
2022/09/22 01:41:51;;;;;;;3.13;1.55;;;9.50;99.90;;;9.48;100.00;101834.88;5283597;28;20146;-71
2022/09/22 01:44:31;;;;;;;3.05;1.60;;;9.50;99.90;;;9.45;100.00;101839.94;5299365;28;20055;-70
2022/09/22 01:47:11;;;;;;;2.28;1.48;;;9.50;99.90;;;9.41;100.00;101835.34;5283500;28;20056;-71
2022/09/22 01:49:51;;;;;;;2.38;1.40;;;9.40;99.90;;;9.39;100.00;101831.78;5283603;28;20036;-71
2022/09/22 01:52:28;;;;;;;3.00;1.55;;;9.40;99.90;;;9.40;100.00;101833.56;5283713;28;20047;-72
2022/09/22 01:55:06;;;;;;;3.28;1.85;;;9.40;99.90;;;9.41;100.00;101832.75;5282661;28;20549;-71
2022/09/22 01:57:45;;;;;;;3.63;1.58;;;9.40;99.90;;;9.41;100.00;101829.25;5268711;28;20066;-71
2022/09/22 02:00:18;;;;;;;2.17;1.52;;;9.40;99.90;;;9.40;100.00;101825.75;5267955;28;20440;-72
2022/09/22 02:02:58;;;;;;;3.10;1.60;;;9.40;99.90;;;9.40;100.00;101828.38;5267701;28;20040;-72
2022/09/22 02:05:36;;;;;;;3.05;1.75;;;9.40;99.90;;;9.41;100.00;101835.34;5268312;28;20324;-72
2022/09/22 02:08:17;;;;;;;2.55;1.50;;;9.40;99.90;;;9.45;100.00;101824.31;5268838;28;20039;-72
2022/09/22 02:10:52;;;;;;;3.25;1.83;;;9.50;99.90;;;9.46;100.00;101826.09;5267988;28;20102;-72
2022/09/22 02:13:26;;;;;;;3.42;1.75;;;9.50;99.90;;;9.47;100.00;101827.91;5269130;28;20131;-72
2022/09/22 02:16:01;;;;;;;4.38;1.70;;;9.50;99.90;;;9.48;100.00;101826.19;5269133;28;20128;-71
2022/09/22 02:18:42;;;;;;;3.40;1.80;;;9.50;99.90;;;9.48;100.00;101834.88;5269371;28;20488;-71
2022/09/22 02:21:15;;;;;;;2.80;1.83;;;9.50;99.90;;;9.49;100.00;101822.75;5268855;28;20127;-72
2022/09/22 02:23:49;;;;;;;2.83;1.70;;;9.50;99.90;;;9.52;100.00;101823.84;5268593;28;20123;-71
2022/09/22 02:26:25;;;;;;;2.80;1.55;;;9.50;99.90;;;9.52;100.00;101826.44;5268805;28;20385;-74
2022/09/22 02:29:02;;;;;;;3.08;1.95;;;9.50;99.90;;;9.53;100.00;101819.53;5268542;28;20048;-72
2022/09/22 02:31:37;;;;;;;4.28;1.80;;;9.60;99.90;;;9.56;100.00;101821.41;5268780;28;20051;-72
2022/09/22 02:34:13;;;;;;;2.65;1.65;;;9.60;99.90;;;9.55;100.00;101817.00;5268581;28;20047;-72
2022/09/22 02:36:56;;;;;;;4.80;1.58;;;9.60;99.90;;;9.55;100.00;101819.59;5267435;28;20048;-72
2022/09/22 02:39:38;;;;;;;3.72;1.70;;;9.60;99.90;;;9.54;100.00;101813.50;5267404;28;20048;-71
2022/09/22 02:42:26;;;;;;;3.40;1.60;;;9.50;99.90;;;9.52;100.00;101817.75;5268594;28;20412;-71
2022/09/22 02:45:06;;;;;;;3.22;1.70;;;9.50;99.90;;;9.49;100.00;101813.25;5266778;28;20040;-71
2022/09/22 02:47:43;;;;;;;2.75;1.40;;;9.50;99.90;;;9.47;100.00;101803.56;5267118;28;20500;-72
2022/09/22 02:50:20;;;;;;;3.42;2.10;;;9.50;99.90;;;9.46;100.00;101797.47;5266791;28;20414;-72
2022/09/22 02:52:58;;;;;;;4.53;2.00;;;9.40;99.90;;;9.43;100.00;101799.00;5266755;28;20067;-71
2022/09/22 02:55:31;;;;;;;3.75;1.83;;;9.40;99.90;;;9.42;100.00;101800.72;5267096;28;20121;-72
2022/09/22 02:58:03;;;;;;;3.22;1.80;;;9.40;99.90;;;9.41;100.00;101793.72;5268328;28;20534;-74
2022/09/22 03:00:36;;;;;;;3.22;1.83;;;9.40;99.90;;;9.39;100.00;101790.16;5266508;28;20052;-72
2022/09/22 03:03:09;;;;;;;3.42;1.80;;;9.40;99.90;;;9.38;100.00;101793.53;5266796;28;20059;-72
2022/09/22 03:05:42;;;;;;;3.75;1.73;;;9.40;99.90;;;9.32;100.00;101785.38;5266793;28;20105;-72
2022/09/22 03:08:15;;;;;;;3.30;1.88;;;9.30;99.90;;;9.29;100.00;101792.13;5267156;28;20054;-72
2022/09/22 03:10:48;;;;;;;4.45;2.08;;;9.30;99.90;;;9.24;100.00;101790.16;5266129;28;20043;-72
2022/09/22 03:13:20;;;;;;;3.17;1.60;;;9.20;99.90;;;9.20;100.00;101787.34;5266337;28;20043;-72
2022/09/22 03:15:52;;;;;;;4.25;1.80;;;9.20;99.90;;;9.20;100.00;101787.34;5267820;28;20043;-72
2022/09/22 03:18:24;;;;;;;2.75;1.73;;;9.20;99.90;;;9.20;100.00;101795.13;5267619;28;20039;-72
2022/09/22 03:20:58;;;;;;;2.90;1.85;;;9.20;99.90;;;9.19;100.00;101786.44;5267705;28;20405;-72
2022/09/22 03:23:30;;;;;;;2.53;1.58;;;9.20;99.90;;;9.20;100.00;101784.72;5267532;28;20047;-71
2022/09/22 03:26:02;;;;;;;2.63;1.67;;;9.20;99.90;;;9.23;100.00;101780.56;5267241;28;20044;-72
2022/09/22 03:28:35;;;;;;;3.60;1.92;;;9.30;99.90;;;9.25;100.00;101778.03;5266166;28;20044;-71
2022/09/22 03:31:08;;;;;;;3.03;1.73;;;9.20;99.90;;;9.25;100.00;101781.53;5267587;28;20070;-72
2022/09/22 03:33:40;;;;;;;2.97;1.77;;;9.30;99.90;;;9.26;100.00;101782.47;5267355;28;20044;-71
2022/09/22 03:36:13;;;;;;;3.35;1.80;;;9.30;99.90;;;9.25;100.00;101778.03;5267345;28;20139;-71
2022/09/22 03:38:45;;;;;;;4.75;2.30;;;9.30;99.90;;;9.25;100.00;101773.75;5267134;28;20336;-72
2022/09/22 03:41:17;;;;;;;3.10;1.67;;;9.30;99.90;;;9.27;100.00;101778.16;5267318;28;20047;-72
2022/09/22 03:43:50;;;;;;;3.97;1.90;;;9.30;99.90;;;9.24;100.00;101776.25;5266872;28;20044;-72
2022/09/22 03:46:22;;;;;;;6.40;2.15;;;9.30;99.90;;;9.22;100.00;101767.50;5267166;28;20044;-71
2022/09/22 03:48:54;;;;;;;5.00;2.00;;;9.20;99.90;;;9.22;100.00;101770.09;5265879;28;20054;-72
2022/09/22 03:51:28;;;;;;;3.20;1.60;;;9.20;99.90;;;9.20;100.00;101776.91;5265848;28;20044;-72
2022/09/22 03:54:00;;;;;;;3.25;1.60;;;9.20;99.90;;;9.19;100.00;101769.91;5266999;28;20046;-72
2022/09/22 03:56:32;;;;;;;2.83;1.55;;;9.20;99.90;;;9.15;100.00;101768.84;5266739;28;20106;-71
2022/09/22 03:59:05;;;;;;;3.60;1.83;;;9.20;99.90;;;9.12;100.00;101767.78;5265247;28;20078;-72
2022/09/22 04:01:38;;;;;;;2.97;1.80;;;9.20;99.90;;;9.06;100.00;101767.44;5267019;28;20051;-73
2022/09/22 04:04:10;;;;;;;4.35;2.00;;;9.10;99.90;;;9.02;100.00;101770.69;5265336;28;20507;-72
2022/09/22 04:06:43;;;;;;;2.95;1.60;;;9.00;99.90;;;8.96;100.00;101769.53;5266466;28;20036;-72
2022/09/22 04:09:17;;;;;;;4.22;2.03;;;9.00;99.90;;;8.91;100.00;101773.56;5266634;28;20055;-73
2022/09/22 04:11:49;;;;;;;3.53;2.00;;;9.00;99.90;;;8.89;100.00;101758.69;5282409;28;20059;-72
2022/09/22 04:14:21;;;;;;;2.70;1.65;;;8.90;99.90;;;8.89;100.00;101769.97;5266525;28;20046;-73
2022/09/22 04:16:54;;;;;;;2.72;1.60;;;8.90;99.90;;;8.88;100.00;101765.59;5265396;28;20138;-73
2022/09/22 04:19:26;;;;;;;3.63;2.10;;;8.90;99.90;;;8.86;100.00;101764.59;5281779;28;20040;-73
2022/09/22 04:21:59;;;;;;;4.07;2.00;;;8.90;99.90;;;8.84;100.00;101761.03;5265181;28;20631;-73
2022/09/22 04:24:32;;;;;;;3.47;1.70;;;8.90;99.90;;;8.80;100.00;101759.06;5265071;28;20048;-72
2022/09/22 04:27:05;;;;;;;3.50;1.50;;;8.80;99.90;;;8.77;100.00;101761.47;5266489;28;20051;-73
2022/09/22 04:29:37;;;;;;;4.63;2.05;;;8.80;99.90;;;8.74;100.00;101757.78;5266710;28;20040;-73
2022/09/22 04:32:10;;;;;;;3.95;2.00;;;8.80;99.90;;;8.71;100.00;101763.72;5266548;28;20048;-72
2022/09/22 04:34:42;;;;;;;4.28;2.22;;;8.70;99.90;;;8.67;100.00;101761.75;5265301;28;20122;-73
2022/09/22 04:37:16;;;;;;;3.00;1.55;;;8.70;99.90;;;8.63;100.00;101765.00;5266466;28;20044;-73
2022/09/22 04:39:49;;;;;;;5.10;1.77;;;8.70;99.90;;;8.60;100.00;101764.78;5264928;28;20075;-72
2022/09/22 04:42:21;;;;;;;3.08;1.70;;;8.60;99.90;;;8.57;100.00;101767.22;5266171;28;20531;-73
2022/09/22 04:44:55;;;;;;;2.72;1.73;;;8.60;99.90;;;8.55;100.00;101763.66;5266326;28;20500;-73
2022/09/22 04:47:29;;;;;;;3.10;2.13;;;8.60;99.90;;;8.53;100.00;101767.84;5266039;28;20578;-72
2022/09/22 04:50:01;;;;;;;3.53;1.67;;;8.60;99.90;;;8.51;100.00;101764.28;5264827;28;20044;-72
2022/09/22 04:52:34;;;;;;;4.32;1.85;;;8.50;99.90;;;8.49;100.00;101765.91;5266033;28;20040;-72
2022/09/22 04:55:10;;;;;;;5.05;1.80;;;8.50;99.90;;;8.47;100.00;101762.28;5266448;28;20040;-72
2022/09/22 04:57:42;;;;;;;;;;;8.50;99.90;;;8.42;100.00;101765.53;5265253;28;20059;-72
2022/09/22 05:00:16;;;;;;;3.13;1.77;;;8.50;99.90;;;8.38;100.00;101763.56;5264684;28;19927;-72
2022/09/22 05:02:48;;;;;;;2.38;1.63;;;8.40;99.90;;;8.36;100.00;101759.97;5266330;28;20042;-72
2022/09/22 05:05:23;;;;;;;3.60;1.70;;;8.40;99.90;;;8.35;100.00;101765.97;5266069;28;20119;-73
2022/09/22 05:07:56;;;;;;;3.53;1.73;;;8.40;99.90;;;8.33;100.00;101767.53;5265904;28;20123;-72
2022/09/22 05:10:31;;;;;;;2.60;1.45;;;8.40;99.90;;;8.30;100.00;101764.78;5265930;28;20036;-73
2022/09/22 05:13:04;;;;;;;2.72;1.73;;;8.40;99.90;;;8.29;100.00;101762.09;5265565;28;20048;-72
2022/09/22 05:15:36;;;;;;;2.47;1.60;;;8.30;99.90;;;8.25;100.00;101763.59;5264083;28;20078;-73
2022/09/22 05:18:09;;;;;;;3.75;1.95;;;8.30;99.90;;;8.25;100.00;101767.91;5265502;28;20040;-72
2022/09/22 05:20:43;;;;;;;3.28;1.70;;;8.30;99.90;;;8.25;100.00;101776.59;5264542;28;20056;-72
2022/09/22 05:23:17;;;;;;;3.92;1.98;;;8.30;99.90;;;8.24;100.00;101773.91;5265768;28;20432;-71
2022/09/22 05:25:49;;;;;;;3.00;1.90;;;8.30;99.90;;;8.24;100.00;101774.81;5265825;28;20206;-72
2022/09/22 05:28:23;;;;;;;3.20;2.00;;;8.30;99.90;;;8.24;100.00;101772.19;5265854;28;20040;-72
2022/09/22 05:30:56;;;;;;;4.28;2.08;;;8.30;99.90;;;8.26;100.00;101772.28;5267184;28;20043;-73
2022/09/22 05:33:29;;;;;;;3.97;1.80;;;8.30;99.90;;;8.28;100.00;101770.66;5269904;28;20044;-70
2022/09/22 05:36:01;;;;;;;2.75;1.70;;;8.30;99.90;;;8.30;100.00;101769.97;5269530;28;20497;-70
2022/09/22 05:38:35;;;;;;;3.08;1.88;;;8.30;99.90;;;8.29;100.00;101773.38;5269733;28;20048;-70
2022/09/22 05:41:07;;;;;;;3.80;1.80;;;8.40;99.90;;;8.25;100.00;101774.00;5269694;28;20044;-70
2022/09/22 05:43:40;;;;;;;5.18;2.17;;;8.30;99.90;;;8.24;100.00;101777.41;5269644;28;20052;-70
2022/09/22 05:46:12;;;;;;;5.07;1.67;;;8.30;99.90;;;8.25;100.00;101776.59;5269379;28;20036;-69
2022/09/22 05:48:44;;;;;;;3.90;2.00;;;8.30;99.90;;;8.26;100.00;101783.56;5285011;28;20047;-69
2022/09/22 05:51:16;;;;;;;2.88;1.73;;;8.30;99.90;;;8.25;100.00;101776.59;5269255;28;20044;-70
2022/09/22 05:53:50;;;;;;;2.72;1.73;;;8.30;99.90;;;8.24;100.00;101782.59;5269231;28;20538;-68
2022/09/22 05:56:22;;;;;;;2.92;1.60;;;8.30;99.90;;;8.24;100.00;101774.81;5269124;28;20044;-67
2022/09/22 05:58:54;;;;;;;4.22;2.00;;;8.30;99.90;;;8.26;100.00;101780.06;5268659;28;20119;-68
2022/09/22 06:01:27;;;;;;;1.90;1.70;;;8.30;99.90;;;8.27;100.00;101780.16;5269147;28;20527;-68
2022/09/22 06:03:59;;;;;;;3.53;1.77;;;8.30;99.90;;;8.31;100.00;101779.56;5267279;28;20241;-56
2022/09/22 06:06:31;;;;;;;2.60;1.70;;;8.40;99.90;;;8.34;100.00;101787.50;5268728;28;20067;-55
2022/09/22 06:09:04;;;;;;;2.88;1.90;;;8.40;99.90;;;8.43;100.00;101785.50;5268474;28;20071;-55
2022/09/22 06:11:58;;;;;;;3.45;1.95;;;8.50;99.90;;;8.74;100.00;101784.72;5289097;22;20039;31
2022/09/22 06:14:31;;;;;;;4.07;2.10;;;8.70;99.90;;;9.14;100.00;101787.88;5164838;28;19921;-55
2022/09/22 06:17:03;;;;;;;4.85;2.20;;;9.00;99.90;;;9.57;100.00;101791.94;5165972;28;20150;-54
2022/09/22 06:19:35;;;;;;;4.97;2.33;;;9.40;99.90;;;10.05;100.00;101778.97;5165889;28;20494;-54
2022/09/22 06:22:09;;;;;;;3.38;1.80;;;9.80;99.90;;;10.60;100.00;101780.91;5165814;28;20042;-54
2022/09/22 06:24:43;;;;;;;4.65;2.20;;;10.30;99.90;;;11.13;100.00;101787.88;5165924;28;20108;-54
2022/09/22 06:27:15;;;;;;;4.35;2.08;;;10.80;99.90;;;11.59;100.00;101785.72;5165614;28;20403;-55
2022/09/22 06:29:47;;;;;;;4.00;2.03;;;11.30;99.90;;;12.01;100.00;101780.72;5165599;28;20411;-54
2022/09/22 06:32:19;;;;;;;3.50;2.25;;;11.70;99.90;;;12.39;100.00;101779.78;5165576;28;20050;-54
2022/09/22 06:34:51;;;;;;;4.45;2.33;;;12.10;99.90;;;12.75;98.56;101783.03;5165582;28;20046;-54
2022/09/22 06:37:24;;;;;;;4.03;2.05;;;12.40;99.90;;;13.03;97.09;101777.19;5165467;28;20046;-55
2022/09/22 06:39:57;;;;;;;3.65;1.95;;;12.70;99.90;;;13.38;95.34;101779.47;5165392;28;20415;-55
2022/09/22 06:42:29;;;;;;;4.03;1.90;;;13.00;99.90;;;13.67;93.37;101789.34;5165419;28;20415;-56
2022/09/22 06:45:03;;;;;;;3.33;1.92;;;13.30;99.90;;;13.84;91.50;101787.34;5165485;28;20049;-54
2022/09/22 06:47:36;;;;;;;3.60;1.88;;;13.50;99.90;;;14.01;91.08;101786.22;5165319;28;20042;-55
2022/09/22 06:50:09;;;;;;;3.67;1.70;;;13.70;99.90;;;14.24;89.70;101783.56;5165293;28;20101;-54
2022/09/22 06:52:41;;;;;;;4.10;1.95;;;13.90;99.30;;;14.53;88.54;101782.84;5165482;28;20050;-55
2022/09/22 06:55:18;;;;;;;2.70;1.90;;;14.10;98.80;;;14.70;87.15;101786.06;5165417;28;20499;-55
2022/09/22 06:57:52;;;;;;;2.20;1.67;;;14.30;98.30;;;14.89;86.91;101783.22;5164728;28;20046;-55
2022/09/22 07:00:27;;;;;;;3.83;1.67;;;14.50;98.10;;;15.14;85.87;101790.16;5165507;28;20085;-57
2022/09/22 07:03:06;;;;;;;3.63;1.80;;;14.70;97.70;;;15.41;84.73;101792.75;5164577;28;20144;-53
2022/09/22 07:05:38;;;;;;;4.07;1.67;;;14.90;97.20;;;15.58;83.96;101788.00;5165630;28;20480;-55
2022/09/22 07:08:10;;;;;;;7.43;1.80;;;15.10;96.80;;;15.73;83.26;101792.88;5165494;28;20046;-54
2022/09/22 07:10:44;;;;;;;3.38;1.80;;;15.30;96.40;;;15.86;82.99;101789.75;5165210;28;20050;-55
2022/09/22 07:13:16;;;;;;;4.32;1.80;;;15.40;96.20;;;15.97;82.03;101793.59;5164821;28;20052;-54
2022/09/22 07:15:49;;;;;;;6.07;2.13;;;15.50;95.70;;;16.24;81.96;101789.94;5164995;28;20072;-55
2022/09/22 07:18:22;;;;;;;3.40;1.70;;;15.70;95.60;;;16.41;80.74;101783.38;5164785;28;20410;-54
2022/09/22 07:21:02;;;;;;;3.65;1.88;;;15.90;95.10;;;16.61;80.47;101783.91;5147009;28;20107;-55
2022/09/22 07:23:35;;;;;;;3.20;1.83;;;16.10;94.80;;;16.76;78.75;101778.19;5164734;28;20050;-56
2022/09/22 07:26:12;;;;;;;5.28;1.90;;;16.30;94.00;;;16.93;78.03;101776.84;5146980;28;20073;-56
2022/09/22 07:28:50;;;;;;;3.33;1.80;;;16.40;93.50;;;16.99;76.94;101782.25;5164525;28;20046;-56
2022/09/22 07:31:23;;;;;;;3.15;1.92;;;16.50;92.80;;;17.03;76.81;101789.41;5164822;28;20458;-55
2022/09/22 07:33:57;;;;;;;3.25;1.70;;;16.60;92.60;;;17.17;76.92;101787.09;5165118;28;20062;-55
2022/09/22 07:36:32;;;;;;;2.67;1.83;;;16.70;92.50;;;17.31;75.88;101784.75;5164824;28;20456;-55
2022/09/22 07:39:07;;;;;;;3.70;1.50;;;16.80;92.00;;;17.40;74.92;101782.31;5163109;28;20051;-57
2022/09/22 07:41:43;;;;;;;3.15;1.63;;;16.90;91.50;;;17.51;75.25;101783.47;5184923;28;20057;-56
2022/09/22 07:47:05;;;;;;;3.35;1.50;;;17.10;91.20;;;17.71;74.41;101788.28;5184367;28;20050;-56
2022/09/22 07:49:37;;;;;;;2.53;1.60;;;17.20;91.00;;;17.79;73.84;101784.09;5184608;28;20449;-58
2022/09/22 07:52:09;;;;;;;3.25;1.60;;;17.30;90.60;;;17.93;73.58;101787.94;5184318;28;20057;-56
2022/09/22 07:54:41;;;;;;;3.63;1.50;;;17.30;90.40;;;18.03;72.62;101779.31;5184030;28;20041;-57
2022/09/22 07:57:15;;;;;;;3.20;1.85;;;17.50;89.80;;;18.08;72.57;101787.34;5184188;28;20116;-56
2022/09/22 07:59:47;;;;;;;3.65;1.50;;;17.40;89.40;;;18.13;72.52;101780.41;5184134;28;20112;-58
2022/09/22 08:02:22;;;;;;;4.78;1.73;;;17.50;89.30;;;18.28;72.17;101783.31;5184469;28;20046;-58
2022/09/22 08:05:01;;;;;;;3.47;1.65;;;17.60;89.10;;;18.51;71.31;101781.09;5184490;28;20061;-59
2022/09/22 08:07:36;;;;;;;2.75;1.50;;;17.70;88.40;;;18.79;70.44;101774.59;5184223;28;20045;-61
2022/09/22 08:10:10;;;;;;;;;;;17.80;88.00;;;19.04;69.86;101782.88;5184542;28;20053;-58
2022/09/22 08:12:43;;;;;;;3.03;1.23;;;17.90;87.20;;;19.42;69.22;101783.47;5183994;28;20000;-58
2022/09/22 08:15:17;;;;;;;2.03;1.40;;;18.10;86.80;;;19.85;67.79;101776.16;5184395;28;20038;-58
2022/09/22 08:17:50;;;;;;;1.83;1.38;;;18.20;85.90;;;20.38;67.23;101775.84;5183907;28;20053;-59
2022/09/22 08:20:22;;;;;;;3.13;1.42;;;18.50;85.90;;;21.13;66.30;101774.78;5183893;28;20052;-57
2022/09/22 08:22:56;;;;;;;2.42;1.30;;;18.90;86.10;;;22.01;63.60;101773.47;5183895;28;20053;-59
2022/09/22 08:25:29;;;;;;;2.28;1.20;;;19.40;84.10;;;23.01;61.01;101783.38;5184050;28;20096;-60
2022/09/22 08:28:03;;;;;;;3.45;1.23;;;20.10;81.70;;;23.97;58.71;101777.81;5166234;28;20046;-60
2022/09/22 08:30:35;;;;;;;1.98;1.35;;;21.00;78.40;;;24.55;56.15;101779.28;5183430;28;20503;-57
2022/09/22 08:33:07;;;;;;;4.30;1.40;;;21.60;74.20;;;25.06;55.21;101777.97;5183758;28;20050;-60
2022/09/22 08:35:50;;;;;;;2.47;1.33;;;22.30;71.60;;;25.53;53.83;101771.25;5183829;28;20061;-59
2022/09/22 08:38:23;;;;;;;1.77;1.20;;;22.80;68.70;;;25.92;53.44;101774.34;5183969;28;20457;-58
2022/09/22 08:41:19;;;;;;;4.32;1.20;;;23.30;67.30;;;26.23;52.69;101775.69;5183241;28;20050;-60
2022/09/22 08:43:57;;;;;;;2.65;1.15;;;23.70;65.60;;;26.43;51.78;101775.44;5183399;28;20471;-61
2022/09/22 08:46:31;;;;;;;2.53;1.20;;;23.90;63.80;;;26.45;51.28;101778.06;5183349;28;20464;-61
2022/09/22 08:52:14;;;;;;;2.60;1.33;;;24.20;62.00;;;25.86;51.72;101777.09;5167176;28;20354;-58
2022/09/22 08:54:47;;;;;;;1.92;1.10;;;24.00;61.30;;;25.47;52.25;101779.31;5183321;28;20046;-58
2022/09/22 08:57:41;;;;;;;1.83;1.20;;;23.90;61.30;;;25.05;53.01;101770.00;5183229;28;20044;-56
2022/09/22 09:00:17;;;;;;;4.47;1.30;;;23.70;61.60;;;24.46;53.18;101774.91;5182890;28;20042;-61
2022/09/22 09:03:04;;;;;;;1.70;1.10;;;23.40;61.30;;;23.78;54.91;101774.34;5182434;28;20129;-59
2022/09/22 09:06:02;;;;;;;2.60;1.20;;;22.90;62.60;;;23.26;57.14;101777.13;5180732;28;20046;-58
2022/09/22 09:09:12;;;;;;;1.70;1.20;;;22.50;64.00;;;22.80;57.73;101773.63;5186224;28;20050;-59
2022/09/22 09:12:01;;;;;;;3.58;1.27;;;22.10;64.60;;;22.58;58.75;101777.16;5181590;28;20058;-59
2022/09/22 09:15:04;;;;;;;3.63;1.00;;;21.90;65.80;;;22.36;59.07;101776.22;5181191;28;20037;-59
2022/09/22 09:17:42;;;;;;;2.55;1.20;;;21.70;65.90;;;22.17;59.13;101772.66;5185833;28;20034;-56
2022/09/22 09:20:18;;;;;;;2.15;1.23;;;21.50;66.10;;;22.07;59.50;101769.06;5187067;28;20523;-58
2022/09/22 09:22:54;;;;;;;4.20;1.10;;;21.40;66.60;;;22.10;60.03;101766.44;5187412;28;20048;-56
2022/09/22 09:25:34;;;;;;;1.80;1.25;;;21.40;67.70;;;22.04;60.21;101773.47;5182035;28;20523;-58
2022/09/22 09:28:12;;;;;;;1.98;1.08;;;21.30;67.20;;;22.00;59.48;101766.38;5181216;28;20118;-57
2022/09/22 09:30:49;;;;;;;3.28;1.20;;;21.30;66.60;;;21.98;59.63;101768.16;5172163;28;20108;-58
2022/09/22 09:33:33;;;;;;;3.15;1.08;;;21.20;66.80;;;22.01;60.45;101761.06;5185868;28;20511;-61
2022/09/22 09:36:15;;;;;;;3.40;1.10;;;21.30;67.50;;;22.13;60.92;101762.91;5185912;28;20042;-60
2022/09/22 09:38:52;;;;;;;3.50;1.30;;;21.30;68.00;;;22.25;59.68;101756.75;5185352;28;20049;-60
2022/09/22 09:41:31;;;;;;;2.25;1.10;;;21.40;67.10;;;22.30;58.88;101762.94;5185733;28;20104;-58
2022/09/22 09:44:04;;;;;;;3.08;1.02;;;21.50;66.40;;;22.31;59.58;101751.44;5185645;28;20450;-57
2022/09/22 09:46:49;;;;;;;1.73;1.42;;;21.50;66.80;;;22.30;59.05;101750.56;5186159;28;20048;-57
2022/09/22 09:49:23;;;;;;;2.03;1.23;;;21.50;66.40;;;22.31;59.66;101739.06;5187077;28;20046;-58
2022/09/22 09:51:58;;;;;;;2.53;1.17;;;21.60;66.90;;;22.40;61.07;101741.72;5186863;28;20297;-57
2022/09/22 09:54:31;;;;;;;1.90;1.20;;;21.60;67.90;;;22.44;60.26;101743.50;5187287;28;20037;-61
2022/09/22 09:57:07;;;;;;;2.83;1.42;;;21.60;67.20;;;22.42;60.57;101734.63;5187198;28;20034;-61
2022/09/22 10:02:37;;;;;;;2.55;1.45;;;21.70;67.70;;;22.59;61.92;101741.72;5186886;28;20386;-60
2022/09/22 10:05:25;;;;;;;2.17;1.20;;;21.80;68.50;;;22.66;60.52;101732.88;5186923;28;20045;-60
2022/09/22 10:08:00;;;;;;;1.67;1.35;;;21.90;67.60;;;22.76;60.35;101724.03;5186783;28;20042;-58
2022/09/22 10:10:35;;;;;;;2.65;0.93;;;21.90;67.30;;;22.80;59.48;101715.13;5186590;28;20599;-60
2022/09/22 10:13:28;;;;;;;0.80;0.80;;;22.00;66.70;;;22.80;58.67;101720.44;5186724;28;20046;-58
2022/09/22 10:16:20;;;;;;;1.15;1.00;;;22.00;66.00;;;22.86;58.74;101708.94;5186551;28;20093;-58
2022/09/22 10:19:05;;;;;;;2.40;1.08;;;22.00;65.80;;;22.84;58.25;101710.72;5186455;28;20391;-56
2022/09/22 10:21:38;;;;;;;1.10;0.90;;;22.00;65.30;;;22.77;57.77;101707.19;5186663;28;20403;-58
2022/09/22 10:24:28;;;;;;;1.85;0.80;;;22.00;64.70;;;22.74;57.64;101709.81;5186628;28;20131;-58
2022/09/22 10:27:00;;;;;;;1.90;1.10;;;22.00;64.60;;;22.56;55.73;101701.84;5186512;28;20586;-57
2022/09/22 10:29:32;;;;;;;2.08;1.05;;;21.90;62.50;;;22.39;55.85;101707.19;5186227;28;20046;-57
2022/09/22 10:32:13;;;;;;;1.75;1.00;;;21.80;62.60;;;22.17;55.98;101691.25;5186187;28;20507;-57
2022/09/22 10:34:47;;;;;;;2.38;1.10;;;21.70;62.50;;;22.27;57.21;101692.13;5186597;28;20042;-59
2022/09/22 10:37:27;;;;;;;0.93;0.80;;;21.70;63.80;;;22.46;56.89;101687.69;5186666;28;20042;-56
2022/09/22 10:40:03;;;;;;;2.08;0.80;;;21.70;63.80;;;22.66;55.15;101685.91;5168565;28;20057;-58
2022/09/22 10:42:39;;;;;;;1.60;0.98;;;21.90;62.40;;;22.79;55.57;101688.56;5186008;28;20262;-57
2022/09/22 10:45:15;;;;;;;1.92;0.98;;;22.00;62.40;;;22.88;54.24;101686.78;5186137;28;20045;-58
2022/09/22 10:47:57;;;;;;;1.50;1.00;;;22.10;61.40;;;22.91;53.80;101685.91;5186028;28;20100;-58
2022/09/22 10:50:49;;;;;;;1.20;0.95;;;22.20;60.80;;;22.82;54.11;101675.25;5185813;28;20074;-57
2022/09/22 10:53:36;;;;;;;1.80;1.00;;;22.10;60.80;;;22.69;55.41;101675.31;5186154;28;20135;-65
2022/09/22 10:56:13;;;;;;;;;;;22.10;61.80;;;22.65;56.08;101675.28;5186363;28;20246;-58
2022/09/22 10:59:06;;;;;;;3.30;1.20;;;22.00;62.50;;;22.74;56.56;101672.59;5168010;28;19921;-58
2022/09/22 11:01:59;;;;;;;2.35;1.00;;;22.00;62.90;;;22.73;56.11;101671.72;5168283;28;20153;-57
2022/09/22 11:04:54;;;;;;;2.50;1.00;;;22.10;62.40;;;22.69;56.58;101677.03;5185662;28;20551;-59
2022/09/22 11:14:03;;;;;;;1.73;0.80;;;21.60;63.50;;;21.95;59.38;101662.84;5184820;28;20049;-56